sensor_id;sensor_type;location;lat;lon;timestamp;temperature;humidity
35495;DHT22;75532;49.300;6.846;2024-03-29T00:00:51;20.50;46.20
35495;DHT22;75532;49.300;6.846;2024-03-29T00:03:52;20.50;46.10
35495;DHT22;75532;49.300;6.846;2024-03-29T00:06:55;20.50;46.10
35495;DHT22;75532;49.300;6.846;2024-03-29T00:09:56;20.50;46.10
35495;DHT22;75532;49.300;6.846;2024-03-29T00:12:56;20.50;46.10
35495;DHT22;75532;49.300;6.846;2024-03-29T00:15:57;20.50;46.10
35495;DHT22;75532;49.300;6.846;2024-03-29T00:18:57;20.50;46.10
35495;DHT22;75532;49.300;6.846;2024-03-29T00:21:58;20.50;46.10
35495;DHT22;75532;49.300;6.846;2024-03-29T00:24:59;20.50;46.00
35495;DHT22;75532;49.300;6.846;2024-03-29T00:27:59;20.50;46.10
35495;DHT22;75532;49.300;6.846;2024-03-29T00:31:01;20.50;46.00
35495;DHT22;75532;49.300;6.846;2024-03-29T00:34:02;20.50;46.00
35495;DHT22;75532;49.300;6.846;2024-03-29T00:37:02;20.50;46.00
35495;DHT22;75532;49.300;6.846;2024-03-29T00:40:03;20.50;46.10
35495;DHT22;75532;49.300;6.846;2024-03-29T00:43:04;20.50;46.00
35495;DHT22;75532;49.300;6.846;2024-03-29T00:46:04;20.50;46.10
35495;DHT22;75532;49.300;6.846;2024-03-29T00:49:05;20.50;46.10
35495;DHT22;75532;49.300;6.846;2024-03-29T00:52:05;20.50;46.70
35495;DHT22;75532;49.300;6.846;2024-03-29T00:55:06;20.50;46.10
35495;DHT22;75532;49.300;6.846;2024-03-29T00:58:07;20.50;46.10
35495;DHT22;75532;49.300;6.846;2024-03-29T01:01:07;20.50;46.20
35495;DHT22;75532;49.300;6.846;2024-03-29T01:04:08;20.50;46.20
35495;DHT22;75532;49.300;6.846;2024-03-29T01:07:09;20.50;46.20
35495;DHT22;75532;49.300;6.846;2024-03-29T01:10:09;20.40;46.20
35495;DHT22;75532;49.300;6.846;2024-03-29T01:13:10;20.40;46.30
35495;DHT22;75532;49.300;6.846;2024-03-29T01:16:10;20.40;46.40
35495;DHT22;75532;49.300;6.846;2024-03-29T01:19:11;20.40;46.40
35495;DHT22;75532;49.300;6.846;2024-03-29T01:22:12;20.40;46.40
35495;DHT22;75532;49.300;6.846;2024-03-29T01:25:12;20.40;46.40
35495;DHT22;75532;49.300;6.846;2024-03-29T01:28:14;20.40;46.50
35495;DHT22;75532;49.300;6.846;2024-03-29T01:31:15;20.40;46.50
35495;DHT22;75532;49.300;6.846;2024-03-29T01:34:15;20.40;46.50
35495;DHT22;75532;49.300;6.846;2024-03-29T01:37:17;20.40;46.50
35495;DHT22;75532;49.300;6.846;2024-03-29T01:40:17;20.40;46.50
35495;DHT22;75532;49.300;6.846;2024-03-29T01:43:18;20.40;46.50
35495;DHT22;75532;49.300;6.846;2024-03-29T01:46:23;20.40;46.50
35495;DHT22;75532;49.300;6.846;2024-03-29T01:49:24;20.40;46.50
35495;DHT22;75532;49.300;6.846;2024-03-29T01:52:25;20.40;46.50
35495;DHT22;75532;49.300;6.846;2024-03-29T01:55:25;20.40;46.60
35495;DHT22;75532;49.300;6.846;2024-03-29T01:58:26;20.40;46.60
35495;DHT22;75532;49.300;6.846;2024-03-29T02:01:27;20.40;46.70
35495;DHT22;75532;49.300;6.846;2024-03-29T02:04:28;20.40;46.60
35495;DHT22;75532;49.300;6.846;2024-03-29T02:07:29;20.30;46.50
35495;DHT22;75532;49.300;6.846;2024-03-29T02:10:30;20.30;46.60
35495;DHT22;75532;49.300;6.846;2024-03-29T02:13:30;20.30;46.70
35495;DHT22;75532;49.300;6.846;2024-03-29T02:16:32;20.30;46.50
35495;DHT22;75532;49.300;6.846;2024-03-29T02:19:33;20.30;46.50
35495;DHT22;75532;49.300;6.846;2024-03-29T02:22:36;20.30;46.40
35495;DHT22;75532;49.300;6.846;2024-03-29T02:25:37;20.30;46.30
35495;DHT22;75532;49.300;6.846;2024-03-29T02:28:38;20.30;46.20
35495;DHT22;75532;49.300;6.846;2024-03-29T02:31:39;20.30;46.20
35495;DHT22;75532;49.300;6.846;2024-03-29T02:34:39;20.30;46.10
35495;DHT22;75532;49.300;6.846;2024-03-29T02:37:40;20.30;46.20
35495;DHT22;75532;49.300;6.846;2024-03-29T02:40:40;20.30;46.20
35495;DHT22;75532;49.300;6.846;2024-03-29T02:43:41;20.30;46.10
35495;DHT22;75532;49.300;6.846;2024-03-29T02:46:42;20.20;46.20
35495;DHT22;75532;49.300;6.846;2024-03-29T02:49:43;20.20;46.10
35495;DHT22;75532;49.300;6.846;2024-03-29T02:52:46;20.20;46.10
35495;DHT22;75532;49.300;6.846;2024-03-29T02:55:46;20.20;46.10
35495;DHT22;75532;49.300;6.846;2024-03-29T02:58:48;20.20;46.20
35495;DHT22;75532;49.300;6.846;2024-03-29T03:01:48;20.30;46.70
35495;DHT22;75532;49.300;6.846;2024-03-29T03:04:54;20.30;46.30
35495;DHT22;75532;49.300;6.846;2024-03-29T03:07:54;20.30;46.20
35495;DHT22;75532;49.300;6.846;2024-03-29T03:11:14;20.40;46.30
35495;DHT22;75532;49.300;6.846;2024-03-29T03:14:14;20.40;46.20
35495;DHT22;75532;49.300;6.846;2024-03-29T03:17:15;20.40;46.10
35495;DHT22;75532;49.300;6.846;2024-03-29T03:20:15;20.40;46.70
35495;DHT22;75532;49.300;6.846;2024-03-29T03:23:16;20.40;46.10
35495;DHT22;75532;49.300;6.846;2024-03-29T03:26:17;20.40;46.10
35495;DHT22;75532;49.300;6.846;2024-03-29T03:29:18;20.40;46.10
35495;DHT22;75532;49.300;6.846;2024-03-29T03:32:18;20.40;46.10
35495;DHT22;75532;49.300;6.846;2024-03-29T03:35:19;20.40;46.10
35495;DHT22;75532;49.300;6.846;2024-03-29T03:38:19;20.40;46.00
35495;DHT22;75532;49.300;6.846;2024-03-29T03:41:20;20.40;46.10
35495;DHT22;75532;49.300;6.846;2024-03-29T03:44:20;20.40;46.10
35495;DHT22;75532;49.300;6.846;2024-03-29T03:47:22;20.40;46.10
35495;DHT22;75532;49.300;6.846;2024-03-29T03:50:22;20.40;46.10
35495;DHT22;75532;49.300;6.846;2024-03-29T03:53:23;20.40;46.10
35495;DHT22;75532;49.300;6.846;2024-03-29T03:56:24;20.40;46.10
35495;DHT22;75532;49.300;6.846;2024-03-29T03:59:24;20.40;46.10
35495;DHT22;75532;49.300;6.846;2024-03-29T04:02:25;20.40;46.20
35495;DHT22;75532;49.300;6.846;2024-03-29T04:05:25;20.40;46.20
35495;DHT22;75532;49.300;6.846;2024-03-29T04:08:26;20.40;46.20
35495;DHT22;75532;49.300;6.846;2024-03-29T04:11:27;20.40;46.30
35495;DHT22;75532;49.300;6.846;2024-03-29T04:14:29;20.40;46.40
35495;DHT22;75532;49.300;6.846;2024-03-29T04:17:30;20.40;46.40
35495;DHT22;75532;49.300;6.846;2024-03-29T04:20:33;20.40;46.40
35495;DHT22;75532;49.300;6.846;2024-03-29T04:23:34;20.30;46.40
35495;DHT22;75532;49.300;6.846;2024-03-29T04:26:34;20.40;46.40
35495;DHT22;75532;49.300;6.846;2024-03-29T04:29:35;20.30;46.40
35495;DHT22;75532;49.300;6.846;2024-03-29T04:32:35;20.30;47.10
35495;DHT22;75532;49.300;6.846;2024-03-29T04:35:36;20.30;46.50
35495;DHT22;75532;49.300;6.846;2024-03-29T04:38:36;20.30;46.40
35495;DHT22;75532;49.300;6.846;2024-03-29T04:41:37;20.30;46.50
35495;DHT22;75532;49.300;6.846;2024-03-29T04:44:37;20.30;46.60
35495;DHT22;75532;49.300;6.846;2024-03-29T04:47:38;20.30;46.50
35495;DHT22;75532;49.300;6.846;2024-03-29T04:50:39;20.30;46.60
35495;DHT22;75532;49.300;6.846;2024-03-29T04:53:40;20.30;46.50
35495;DHT22;75532;49.300;6.846;2024-03-29T04:56:40;20.30;46.40
35495;DHT22;75532;49.300;6.846;2024-03-29T04:59:41;20.30;46.50
35495;DHT22;75532;49.300;6.846;2024-03-29T05:02:41;20.30;46.60
35495;DHT22;75532;49.300;6.846;2024-03-29T05:05:42;20.30;46.50
35495;DHT22;75532;49.300;6.846;2024-03-29T05:08:42;20.30;46.50
35495;DHT22;75532;49.300;6.846;2024-03-29T05:11:43;20.30;46.50
35495;DHT22;75532;49.300;6.846;2024-03-29T05:14:43;20.30;46.70
35495;DHT22;75532;49.300;6.846;2024-03-29T05:17:44;20.30;46.30
35495;DHT22;75532;49.300;6.846;2024-03-29T05:20:44;20.20;46.30
35495;DHT22;75532;49.300;6.846;2024-03-29T05:23:49;20.20;46.20
35495;DHT22;75532;49.300;6.846;2024-03-29T05:26:49;20.20;46.30
35495;DHT22;75532;49.300;6.846;2024-03-29T05:29:51;20.20;46.20
35495;DHT22;75532;49.300;6.846;2024-03-29T05:32:51;20.20;46.10
35495;DHT22;75532;49.300;6.846;2024-03-29T05:35:52;20.20;46.20
35495;DHT22;75532;49.300;6.846;2024-03-29T05:38:53;20.20;46.20
35495;DHT22;75532;49.300;6.846;2024-03-29T05:41:54;20.20;46.20
35495;DHT22;75532;49.300;6.846;2024-03-29T05:44:55;20.20;46.20
35495;DHT22;75532;49.300;6.846;2024-03-29T05:47:57;20.20;46.50
35495;DHT22;75532;49.300;6.846;2024-03-29T05:50:58;20.20;46.70
35495;DHT22;75532;49.300;6.846;2024-03-29T05:53:58;20.20;46.30
35495;DHT22;75532;49.300;6.846;2024-03-29T05:56:59;20.30;46.30
35495;DHT22;75532;49.300;6.846;2024-03-29T06:00:00;20.30;46.20
35495;DHT22;75532;49.300;6.846;2024-03-29T06:03:01;20.40;46.30
35495;DHT22;75532;49.300;6.846;2024-03-29T06:06:05;20.40;46.20
35495;DHT22;75532;49.300;6.846;2024-03-29T06:09:07;20.40;46.20
35495;DHT22;75532;49.300;6.846;2024-03-29T06:12:08;20.40;46.10
35495;DHT22;75532;49.300;6.846;2024-03-29T06:15:12;20.40;46.10
35495;DHT22;75532;49.300;6.846;2024-03-29T06:18:30;20.40;46.10
35495;DHT22;75532;49.300;6.846;2024-03-29T06:21:32;20.40;46.10
35495;DHT22;75532;49.300;6.846;2024-03-29T06:24:38;20.40;46.00
35495;DHT22;75532;49.300;6.846;2024-03-29T06:27:40;20.40;46.00
35495;DHT22;75532;49.300;6.846;2024-03-29T06:30:41;20.50;46.10
35495;DHT22;75532;49.300;6.846;2024-03-29T06:33:41;20.40;46.00
35495;DHT22;75532;49.300;6.846;2024-03-29T06:36:42;20.50;46.10
35495;DHT22;75532;49.300;6.846;2024-03-29T06:39:42;20.50;46.10
35495;DHT22;75532;49.300;6.846;2024-03-29T06:42:44;20.40;46.00
35495;DHT22;75532;49.300;6.846;2024-03-29T06:45:44;20.40;46.10
35495;DHT22;75532;49.300;6.846;2024-03-29T06:48:45;20.40;46.10
35495;DHT22;75532;49.300;6.846;2024-03-29T06:51:45;20.40;46.10
35495;DHT22;75532;49.300;6.846;2024-03-29T06:54:46;20.40;46.10
35495;DHT22;75532;49.300;6.846;2024-03-29T06:57:47;20.40;46.10
35495;DHT22;75532;49.300;6.846;2024-03-29T07:00:47;20.40;46.10
35495;DHT22;75532;49.300;6.846;2024-03-29T07:03:49;20.40;46.10
35495;DHT22;75532;49.300;6.846;2024-03-29T07:06:53;20.40;46.20
35495;DHT22;75532;49.300;6.846;2024-03-29T07:09:54;20.40;46.20
35495;DHT22;75532;49.300;6.846;2024-03-29T07:12:54;20.40;46.20
35495;DHT22;75532;49.300;6.846;2024-03-29T07:15:55;20.40;46.30
35495;DHT22;75532;49.300;6.846;2024-03-29T07:18:56;20.40;46.20
35495;DHT22;75532;49.300;6.846;2024-03-29T07:21:56;20.40;46.30
35495;DHT22;75532;49.300;6.846;2024-03-29T07:24:57;20.30;46.30
35495;DHT22;75532;49.300;6.846;2024-03-29T07:27:57;20.30;46.30
35495;DHT22;75532;49.300;6.846;2024-03-29T07:30:58;20.30;46.30
35495;DHT22;75532;49.300;6.846;2024-03-29T07:34:05;20.30;46.30
35495;DHT22;75532;49.300;6.846;2024-03-29T07:37:06;20.30;46.30
35495;DHT22;75532;49.300;6.846;2024-03-29T07:40:07;20.30;46.40
35495;DHT22;75532;49.300;6.846;2024-03-29T07:43:07;20.30;46.40
35495;DHT22;75532;49.300;6.846;2024-03-29T07:46:08;20.30;46.40
35495;DHT22;75532;49.300;6.846;2024-03-29T07:49:10;20.30;46.40
35495;DHT22;75532;49.300;6.846;2024-03-29T07:52:10;20.30;46.50
35495;DHT22;75532;49.300;6.846;2024-03-29T07:55:11;20.30;46.50
35495;DHT22;75532;49.300;6.846;2024-03-29T07:58:11;20.30;46.40
35495;DHT22;75532;49.300;6.846;2024-03-29T08:01:18;20.30;46.50
35495;DHT22;75532;49.300;6.846;2024-03-29T08:04:19;20.30;46.40
35495;DHT22;75532;49.300;6.846;2024-03-29T08:07:20;20.30;46.50
35495;DHT22;75532;49.300;6.846;2024-03-29T08:10:21;20.30;46.50
35495;DHT22;75532;49.300;6.846;2024-03-29T08:13:21;20.30;46.40
35495;DHT22;75532;49.300;6.846;2024-03-29T08:16:22;20.30;46.40
35495;DHT22;75532;49.300;6.846;2024-03-29T08:19:23;20.30;46.40
35495;DHT22;75532;49.300;6.846;2024-03-29T08:22:24;20.20;46.40
35495;DHT22;75532;49.300;6.846;2024-03-29T08:25:24;20.20;46.30
35495;DHT22;75532;49.300;6.846;2024-03-29T08:28:27;20.20;46.30
35495;DHT22;75532;49.300;6.846;2024-03-29T08:31:28;20.20;46.30
35495;DHT22;75532;49.300;6.846;2024-03-29T08:34:28;20.20;46.30
35495;DHT22;75532;49.300;6.846;2024-03-29T08:37:34;20.20;46.30
35495;DHT22;75532;49.300;6.846;2024-03-29T08:40:35;20.20;46.30
35495;DHT22;75532;49.300;6.846;2024-03-29T08:43:38;20.20;46.30
35495;DHT22;75532;49.300;6.846;2024-03-29T08:46:38;20.20;46.20
35495;DHT22;75532;49.300;6.846;2024-03-29T08:49:39;20.20;46.20
35495;DHT22;75532;49.300;6.846;2024-03-29T08:52:40;20.20;46.20
35495;DHT22;75532;49.300;6.846;2024-03-29T08:55:41;20.20;46.20
35495;DHT22;75532;49.300;6.846;2024-03-29T08:58:41;20.20;46.20
35495;DHT22;75532;49.300;6.846;2024-03-29T09:01:44;20.20;46.30
35495;DHT22;75532;49.300;6.846;2024-03-29T09:04:45;20.10;46.20
35495;DHT22;75532;49.300;6.846;2024-03-29T09:07:45;20.10;46.20
35495;DHT22;75532;49.300;6.846;2024-03-29T09:10:46;20.20;46.30
35495;DHT22;75532;49.300;6.846;2024-03-29T09:13:47;20.20;46.30
35495;DHT22;75532;49.300;6.846;2024-03-29T09:16:48;20.10;46.20
35495;DHT22;75532;49.300;6.846;2024-03-29T09:19:50;20.20;46.30
35495;DHT22;75532;49.300;6.846;2024-03-29T09:22:52;20.10;46.20
35495;DHT22;75532;49.300;6.846;2024-03-29T09:25:52;20.20;46.30
35495;DHT22;75532;49.300;6.846;2024-03-29T09:28:53;20.10;46.20
35495;DHT22;75532;49.300;6.846;2024-03-29T09:31:53;20.10;46.30
35495;DHT22;75532;49.300;6.846;2024-03-29T09:34:54;20.10;46.30
35495;DHT22;75532;49.300;6.846;2024-03-29T09:37:54;20.10;46.30
35495;DHT22;75532;49.300;6.846;2024-03-29T09:41:15;20.10;46.30
35495;DHT22;75532;49.300;6.846;2024-03-29T09:44:16;20.10;46.40
35495;DHT22;75532;49.300;6.846;2024-03-29T09:47:18;20.10;46.30
35495;DHT22;75532;49.300;6.846;2024-03-29T09:50:19;20.10;46.30
35495;DHT22;75532;49.300;6.846;2024-03-29T09:53:20;20.10;46.30
35495;DHT22;75532;49.300;6.846;2024-03-29T09:56:21;20.10;46.40
35495;DHT22;75532;49.300;6.846;2024-03-29T09:59:23;20.10;46.40
35495;DHT22;75532;49.300;6.846;2024-03-29T10:02:31;20.10;46.30
35495;DHT22;75532;49.300;6.846;2024-03-29T10:05:33;20.10;46.40
35495;DHT22;75532;49.300;6.846;2024-03-29T10:08:34;20.10;46.40
35495;DHT22;75532;49.300;6.846;2024-03-29T10:11:35;20.10;46.40
35495;DHT22;75532;49.300;6.846;2024-03-29T10:14:48;20.10;46.40
35495;DHT22;75532;49.300;6.846;2024-03-29T10:18:25;20.10;46.40
35495;DHT22;75532;49.300;6.846;2024-03-29T10:21:26;20.10;46.40
35495;DHT22;75532;49.300;6.846;2024-03-29T10:24:27;20.10;46.40
35495;DHT22;75532;49.300;6.846;2024-03-29T10:27:28;20.10;46.50
35495;DHT22;75532;49.300;6.846;2024-03-29T10:30:30;20.10;46.40
35495;DHT22;75532;49.300;6.846;2024-03-29T10:33:34;20.10;46.30
35495;DHT22;75532;49.300;6.846;2024-03-29T10:36:34;20.00;46.30
35495;DHT22;75532;49.300;6.846;2024-03-29T10:39:42;20.10;46.40
35495;DHT22;75532;49.300;6.846;2024-03-29T10:42:43;20.00;46.30
35495;DHT22;75532;49.300;6.846;2024-03-29T10:45:45;20.00;46.40
35495;DHT22;75532;49.300;6.846;2024-03-29T10:48:48;20.00;46.40
35495;DHT22;75532;49.300;6.846;2024-03-29T10:51:50;20.00;46.40
35495;DHT22;75532;49.300;6.846;2024-03-29T10:54:52;20.00;46.40
35495;DHT22;75532;49.300;6.846;2024-03-29T10:57:53;20.00;46.50
35495;DHT22;75532;49.300;6.846;2024-03-29T11:00:57;20.00;46.50
35495;DHT22;75532;49.300;6.846;2024-03-29T11:04:01;20.00;46.50
35495;DHT22;75532;49.300;6.846;2024-03-29T11:07:08;20.00;46.50
35495;DHT22;75532;49.300;6.846;2024-03-29T11:10:17;20.00;46.80
35495;DHT22;75532;49.300;6.846;2024-03-29T11:13:25;20.00;46.50
35495;DHT22;75532;49.300;6.846;2024-03-29T11:16:27;20.00;46.50
35495;DHT22;75532;49.300;6.846;2024-03-29T11:19:28;20.00;46.50
35495;DHT22;75532;49.300;6.846;2024-03-29T11:22:29;20.00;46.50
35495;DHT22;75532;49.300;6.846;2024-03-29T11:25:38;20.00;46.50
35495;DHT22;75532;49.300;6.846;2024-03-29T11:28:39;20.00;46.50
35495;DHT22;75532;49.300;6.846;2024-03-29T11:31:42;20.00;46.50
35495;DHT22;75532;49.300;6.846;2024-03-29T11:34:45;20.00;46.50
35495;DHT22;75532;49.300;6.846;2024-03-29T11:37:55;20.00;46.50
35495;DHT22;75532;49.300;6.846;2024-03-29T11:41:16;20.00;46.60
35495;DHT22;75532;49.300;6.846;2024-03-29T11:44:17;20.00;46.50
35495;DHT22;75532;49.300;6.846;2024-03-29T11:47:18;20.00;46.50
35495;DHT22;75532;49.300;6.846;2024-03-29T11:50:19;20.00;46.60
35495;DHT22;75532;49.300;6.846;2024-03-29T11:53:20;20.00;46.50
35495;DHT22;75532;49.300;6.846;2024-03-29T11:56:21;20.00;46.50
35495;DHT22;75532;49.300;6.846;2024-03-29T11:59:22;20.00;46.50
35495;DHT22;75532;49.300;6.846;2024-03-29T12:02:23;20.00;46.60
35495;DHT22;75532;49.300;6.846;2024-03-29T12:05:24;20.00;46.50
35495;DHT22;75532;49.300;6.846;2024-03-29T12:08:25;20.00;46.50
35495;DHT22;75532;49.300;6.846;2024-03-29T12:11:26;20.00;46.50
35495;DHT22;75532;49.300;6.846;2024-03-29T12:14:31;19.90;46.50
35495;DHT22;75532;49.300;6.846;2024-03-29T12:17:35;19.90;46.50
35495;DHT22;75532;49.300;6.846;2024-03-29T12:20:39;20.00;46.50
35495;DHT22;75532;49.300;6.846;2024-03-29T12:23:39;19.90;46.50
35495;DHT22;75532;49.300;6.846;2024-03-29T12:26:48;20.00;46.50
35495;DHT22;75532;49.300;6.846;2024-03-29T12:29:53;20.00;46.50
35495;DHT22;75532;49.300;6.846;2024-03-29T12:33:08;19.90;46.50
35495;DHT22;75532;49.300;6.846;2024-03-29T12:36:11;20.00;46.50
35495;DHT22;75532;49.300;6.846;2024-03-29T12:39:12;20.00;46.60
35495;DHT22;75532;49.300;6.846;2024-03-29T12:42:13;20.00;46.50
35495;DHT22;75532;49.300;6.846;2024-03-29T12:45:14;20.00;46.50
35495;DHT22;75532;49.300;6.846;2024-03-29T12:48:21;20.00;46.60
35495;DHT22;75532;49.300;6.846;2024-03-29T12:51:26;19.90;46.50
35495;DHT22;75532;49.300;6.846;2024-03-29T12:54:27;19.90;46.50
35495;DHT22;75532;49.300;6.846;2024-03-29T12:57:27;19.90;46.50
35495;DHT22;75532;49.300;6.846;2024-03-29T13:00:28;19.90;46.50
35495;DHT22;75532;49.300;6.846;2024-03-29T13:03:29;20.00;46.60
35495;DHT22;75532;49.300;6.846;2024-03-29T13:06:29;20.00;46.50
35495;DHT22;75532;49.300;6.846;2024-03-29T13:09:30;19.90;46.60
35495;DHT22;75532;49.300;6.846;2024-03-29T13:12:31;19.90;46.50
35495;DHT22;75532;49.300;6.846;2024-03-29T13:15:33;19.90;46.50
35495;DHT22;75532;49.300;6.846;2024-03-29T13:18:34;19.90;46.50
35495;DHT22;75532;49.300;6.846;2024-03-29T13:21:35;20.00;46.60
35495;DHT22;75532;49.300;6.846;2024-03-29T13:24:37;19.90;46.50
35495;DHT22;75532;49.300;6.846;2024-03-29T13:27:38;19.90;46.60
35495;DHT22;75532;49.300;6.846;2024-03-29T13:30:39;19.90;46.50
35495;DHT22;75532;49.300;6.846;2024-03-29T13:33:43;19.90;46.60
35495;DHT22;75532;49.300;6.846;2024-03-29T13:36:44;19.90;46.60
35495;DHT22;75532;49.300;6.846;2024-03-29T13:39:46;19.90;46.60
35495;DHT22;75532;49.300;6.846;2024-03-29T13:42:46;19.90;46.60
35495;DHT22;75532;49.300;6.846;2024-03-29T13:45:49;19.90;46.60
35495;DHT22;75532;49.300;6.846;2024-03-29T13:48:51;19.90;46.60
35495;DHT22;75532;49.300;6.846;2024-03-29T13:51:51;19.90;46.60
35495;DHT22;75532;49.300;6.846;2024-03-29T13:54:52;19.90;46.60
35495;DHT22;75532;49.300;6.846;2024-03-29T13:57:53;19.90;46.60
35495;DHT22;75532;49.300;6.846;2024-03-29T14:00:55;19.90;46.60
35495;DHT22;75532;49.300;6.846;2024-03-29T14:04:00;19.90;46.60
35495;DHT22;75532;49.300;6.846;2024-03-29T14:07:00;19.80;46.60
35495;DHT22;75532;49.300;6.846;2024-03-29T14:10:02;19.80;46.60
35495;DHT22;75532;49.300;6.846;2024-03-29T14:13:04;19.90;46.70
35495;DHT22;75532;49.300;6.846;2024-03-29T14:16:05;19.90;46.70
35495;DHT22;75532;49.300;6.846;2024-03-29T14:19:05;19.80;46.60
35495;DHT22;75532;49.300;6.846;2024-03-29T14:22:06;19.90;46.70
35495;DHT22;75532;49.300;6.846;2024-03-29T14:25:08;19.90;46.70
35495;DHT22;75532;49.300;6.846;2024-03-29T14:28:10;19.90;46.70
35495;DHT22;75532;49.300;6.846;2024-03-29T14:31:11;19.90;47.30
35495;DHT22;75532;49.300;6.846;2024-03-29T14:34:11;19.80;46.70
35495;DHT22;75532;49.300;6.846;2024-03-29T14:37:12;19.80;46.70
35495;DHT22;75532;49.300;6.846;2024-03-29T14:40:16;19.90;46.70
35495;DHT22;75532;49.300;6.846;2024-03-29T14:43:16;19.80;46.70
35495;DHT22;75532;49.300;6.846;2024-03-29T14:46:18;19.80;46.70
35495;DHT22;75532;49.300;6.846;2024-03-29T14:49:22;19.80;46.70
35495;DHT22;75532;49.300;6.846;2024-03-29T14:52:23;19.80;46.80
35495;DHT22;75532;49.300;6.846;2024-03-29T14:55:24;19.80;46.70
35495;DHT22;75532;49.300;6.846;2024-03-29T14:58:26;19.80;46.80
35495;DHT22;75532;49.300;6.846;2024-03-29T15:01:27;19.80;46.70
35495;DHT22;75532;49.300;6.846;2024-03-29T15:04:28;19.80;46.70
35495;DHT22;75532;49.300;6.846;2024-03-29T15:07:28;19.80;46.70
35495;DHT22;75532;49.300;6.846;2024-03-29T15:10:29;19.80;46.70
35495;DHT22;75532;49.300;6.846;2024-03-29T15:13:31;19.80;46.70
35495;DHT22;75532;49.300;6.846;2024-03-29T15:16:32;19.80;46.70
35495;DHT22;75532;49.300;6.846;2024-03-29T15:19:33;19.90;47.00
35495;DHT22;75532;49.300;6.846;2024-03-29T15:22:33;19.80;46.70
35495;DHT22;75532;49.300;6.846;2024-03-29T15:25:34;19.90;46.60
35495;DHT22;75532;49.300;6.846;2024-03-29T15:28:36;20.00;46.60
35495;DHT22;75532;49.300;6.846;2024-03-29T15:31:54;20.00;46.50
35495;DHT22;75532;49.300;6.846;2024-03-29T15:34:55;20.00;46.50
35495;DHT22;75532;49.300;6.846;2024-03-29T15:37:56;20.00;46.40
35495;DHT22;75532;49.300;6.846;2024-03-29T15:40:58;20.10;46.40
35495;DHT22;75532;49.300;6.846;2024-03-29T15:43:59;20.00;46.40
35495;DHT22;75532;49.300;6.846;2024-03-29T15:47:01;20.00;46.40
35495;DHT22;75532;49.300;6.846;2024-03-29T15:50:01;20.10;46.40
35495;DHT22;75532;49.300;6.846;2024-03-29T15:53:02;20.10;46.40
35495;DHT22;75532;49.300;6.846;2024-03-29T15:56:04;20.10;46.40
35495;DHT22;75532;49.300;6.846;2024-03-29T15:59:05;20.10;46.40
35495;DHT22;75532;49.300;6.846;2024-03-29T16:02:05;20.10;46.40
35495;DHT22;75532;49.300;6.846;2024-03-29T16:05:06;20.10;46.40
35495;DHT22;75532;49.300;6.846;2024-03-29T16:08:07;20.10;46.40
35495;DHT22;75532;49.300;6.846;2024-03-29T16:11:08;20.10;46.40
35495;DHT22;75532;49.300;6.846;2024-03-29T16:14:08;20.10;46.40
35495;DHT22;75532;49.300;6.846;2024-03-29T16:17:09;20.10;46.40
35495;DHT22;75532;49.300;6.846;2024-03-29T16:20:10;20.10;46.40
35495;DHT22;75532;49.300;6.846;2024-03-29T16:23:14;20.10;46.40
35495;DHT22;75532;49.300;6.846;2024-03-29T16:26:20;20.00;46.40
35495;DHT22;75532;49.300;6.846;2024-03-29T16:29:21;20.00;46.40
35495;DHT22;75532;49.300;6.846;2024-03-29T16:32:21;20.00;46.50
35495;DHT22;75532;49.300;6.846;2024-03-29T16:35:24;20.10;46.50
35495;DHT22;75532;49.300;6.846;2024-03-29T16:38:24;20.00;46.50
35495;DHT22;75532;49.300;6.846;2024-03-29T16:41:25;20.00;46.50
35495;DHT22;75532;49.300;6.846;2024-03-29T16:44:26;20.00;46.60
35495;DHT22;75532;49.300;6.846;2024-03-29T16:47:26;20.00;46.60
35495;DHT22;75532;49.300;6.846;2024-03-29T16:50:27;20.00;46.60
35495;DHT22;75532;49.300;6.846;2024-03-29T16:53:27;20.00;46.60
35495;DHT22;75532;49.300;6.846;2024-03-29T16:56:28;20.00;46.60
35495;DHT22;75532;49.300;6.846;2024-03-29T16:59:29;20.00;46.70
35495;DHT22;75532;49.300;6.846;2024-03-29T17:02:29;20.00;46.70
35495;DHT22;75532;49.300;6.846;2024-03-29T17:05:30;20.00;46.70
35495;DHT22;75532;49.300;6.846;2024-03-29T17:08:30;20.00;46.70
35495;DHT22;75532;49.300;6.846;2024-03-29T17:11:31;20.00;46.70
35495;DHT22;75532;49.300;6.846;2024-03-29T17:14:32;20.00;46.60
35495;DHT22;75532;49.300;6.846;2024-03-29T17:17:32;20.00;46.70
35495;DHT22;75532;49.300;6.846;2024-03-29T17:20:33;20.00;46.70
35495;DHT22;75532;49.300;6.846;2024-03-29T17:23:33;20.00;47.30
35495;DHT22;75532;49.300;6.846;2024-03-29T17:26:34;20.00;46.70
35495;DHT22;75532;49.300;6.846;2024-03-29T17:29:34;19.90;46.60
35495;DHT22;75532;49.300;6.846;2024-03-29T17:32:38;20.00;46.60
35495;DHT22;75532;49.300;6.846;2024-03-29T17:35:39;19.90;46.60
35495;DHT22;75532;49.300;6.846;2024-03-29T17:38:39;19.90;46.70
35495;DHT22;75532;49.300;6.846;2024-03-29T17:41:41;19.90;46.70
35495;DHT22;75532;49.300;6.846;2024-03-29T17:44:42;19.90;46.70
35495;DHT22;75532;49.300;6.846;2024-03-29T17:47:42;19.90;46.70
35495;DHT22;75532;49.300;6.846;2024-03-29T17:50:43;20.00;46.80
35495;DHT22;75532;49.300;6.846;2024-03-29T17:53:43;19.90;46.70
35495;DHT22;75532;49.300;6.846;2024-03-29T17:56:44;19.90;46.60
35495;DHT22;75532;49.300;6.846;2024-03-29T17:59:45;19.90;46.70
35495;DHT22;75532;49.300;6.846;2024-03-29T18:02:45;19.90;46.60
35495;DHT22;75532;49.300;6.846;2024-03-29T18:05:46;19.90;46.60
35495;DHT22;75532;49.300;6.846;2024-03-29T18:08:46;19.90;46.70
35495;DHT22;75532;49.300;6.846;2024-03-29T18:11:47;19.90;46.60
35495;DHT22;75532;49.300;6.846;2024-03-29T18:14:47;19.90;46.70
35495;DHT22;75532;49.300;6.846;2024-03-29T18:17:50;19.90;46.70
35495;DHT22;75532;49.300;6.846;2024-03-29T18:20:50;19.90;46.60
35495;DHT22;75532;49.300;6.846;2024-03-29T18:23:51;19.90;46.60
35495;DHT22;75532;49.300;6.846;2024-03-29T18:26:52;19.80;46.60
35495;DHT22;75532;49.300;6.846;2024-03-29T18:29:55;19.80;46.60
35495;DHT22;75532;49.300;6.846;2024-03-29T18:32:55;19.90;46.60
35495;DHT22;75532;49.300;6.846;2024-03-29T18:35:56;19.90;46.60
35495;DHT22;75532;49.300;6.846;2024-03-29T18:38:58;19.90;46.70
35495;DHT22;75532;49.300;6.846;2024-03-29T18:41:59;19.80;46.70
35495;DHT22;75532;49.300;6.846;2024-03-29T18:44:59;19.80;46.90
35495;DHT22;75532;49.300;6.846;2024-03-29T18:48:01;19.90;46.70
35495;DHT22;75532;49.300;6.846;2024-03-29T18:51:01;20.00;46.70
35495;DHT22;75532;49.300;6.846;2024-03-29T18:54:02;20.00;46.60
35495;DHT22;75532;49.300;6.846;2024-03-29T18:57:03;20.00;46.50
35495;DHT22;75532;49.300;6.846;2024-03-29T19:00:08;20.10;46.50
35495;DHT22;75532;49.300;6.846;2024-03-29T19:03:09;20.10;46.50
35495;DHT22;75532;49.300;6.846;2024-03-29T19:06:10;20.10;46.50